sensor_id;sensor_type;location;lat;lon;timestamp;pressure;altitude;pressure_sealevel;temperature;humidity
79077;BME280;68477;42.698;23.342;2023-05-07T00:01:52;95632.94;;;10.42;73.83
79077;BME280;68477;42.698;23.342;2023-05-07T00:04:18;95637.91;;;10.54;73.18
79077;BME280;68477;42.698;23.342;2023-05-07T00:06:43;95636.59;;;10.58;72.73
79077;BME280;68477;42.698;23.342;2023-05-07T00:09:09;95633.44;;;10.46;73.49
79077;BME280;68477;42.698;23.342;2023-05-07T00:11:34;95630.31;;;10.50;73.22
79077;BME280;68477;42.698;23.342;2023-05-07T00:14:00;95636.03;;;10.38;73.72
79077;BME280;68477;42.698;23.342;2023-05-07T00:16:25;95633.28;;;9.97;75.53
79077;BME280;68477;42.698;23.342;2023-05-07T00:18:51;95631.09;;;9.84;76.29
79077;BME280;68477;42.698;23.342;2023-05-07T00:21:17;95627.50;;;9.51;77.67
79077;BME280;68477;42.698;23.342;2023-05-07T00:23:42;95620.19;;;9.37;78.60
79077;BME280;68477;42.698;23.342;2023-05-07T00:26:07;95623.38;;;9.49;78.84
79077;BME280;68477;42.698;23.342;2023-05-07T00:28:33;95620.69;;;9.67;77.41
79077;BME280;68477;42.698;23.342;2023-05-07T00:30:59;95618.94;;;9.83;76.47
79077;BME280;68477;42.698;23.342;2023-05-07T00:33:24;95619.75;;;9.84;76.27
79077;BME280;68477;42.698;23.342;2023-05-07T00:35:52;95626.06;;;9.99;75.60
79077;BME280;68477;42.698;23.342;2023-05-07T00:38:17;95631.34;;;10.15;74.70
79077;BME280;68477;42.698;23.342;2023-05-07T00:40:42;95628.56;;;10.17;74.35
79077;BME280;68477;42.698;23.342;2023-05-07T00:43:08;95620.50;;;10.02;74.78
79077;BME280;68477;42.698;23.342;2023-05-07T00:45:34;95622.59;;;9.90;75.47
79077;BME280;68477;42.698;23.342;2023-05-07T00:48:00;95634.28;;;10.04;75.21
79077;BME280;68477;42.698;23.342;2023-05-07T00:50:29;95636.44;;;10.17;74.69
79077;BME280;68477;42.698;23.342;2023-05-07T00:52:56;95633.25;;;9.89;75.39
79077;BME280;68477;42.698;23.342;2023-05-07T00:55:22;95627.56;;;10.02;75.01
79077;BME280;68477;42.698;23.342;2023-05-07T00:57:49;95631.13;;;9.92;75.41
79077;BME280;68477;42.698;23.342;2023-05-07T01:00:16;95628.50;;;9.92;75.67
79077;BME280;68477;42.698;23.342;2023-05-07T01:02:42;95637.19;;;9.93;75.20
79077;BME280;68477;42.698;23.342;2023-05-07T01:05:09;95641.53;;;9.68;76.48
79077;BME280;68477;42.698;23.342;2023-05-07T01:07:37;95638.09;;;9.68;76.09
79077;BME280;68477;42.698;23.342;2023-05-07T01:10:07;95632.06;;;9.83;75.26
79077;BME280;68477;42.698;23.342;2023-05-07T01:12:34;95643.09;;;9.53;77.12
79077;BME280;68477;42.698;23.342;2023-05-07T01:15:01;95631.97;;;9.59;76.65
79077;BME280;68477;42.698;23.342;2023-05-07T01:17:27;95636.28;;;9.68;76.22
79077;BME280;68477;42.698;23.342;2023-05-07T01:19:52;95629.22;;;9.69;75.37
79077;BME280;68477;42.698;23.342;2023-05-07T01:22:28;95632.41;;;9.80;75.55
79077;BME280;68477;42.698;23.342;2023-05-07T01:24:55;95632.41;;;9.80;75.45
79077;BME280;68477;42.698;23.342;2023-05-07T01:27:21;95636.81;;;9.80;75.80
79077;BME280;68477;42.698;23.342;2023-05-07T01:29:46;95633.69;;;9.76;75.40
79077;BME280;68477;42.698;23.342;2023-05-07T01:32:13;95637.84;;;9.87;74.82
79077;BME280;68477;42.698;23.342;2023-05-07T01:34:39;95635.09;;;9.97;74.37
79077;BME280;68477;42.698;23.342;2023-05-07T01:37:05;95634.41;;;9.86;75.08
79077;BME280;68477;42.698;23.342;2023-05-07T01:39:31;95628.16;;;9.96;74.06
79077;BME280;68477;42.698;23.342;2023-05-07T01:41:58;95623.09;;;9.60;74.96
79077;BME280;68477;42.698;23.342;2023-05-07T01:44:24;95629.22;;;9.69;74.85
79077;BME280;68477;42.698;23.342;2023-05-07T01:46:50;95619.75;;;9.42;76.26
79077;BME280;68477;42.698;23.342;2023-05-07T01:49:17;95619.53;;;9.09;77.84
79077;BME280;68477;42.698;23.342;2023-05-07T01:51:43;95614.44;;;9.33;76.78
79077;BME280;68477;42.698;23.342;2023-05-07T01:54:09;95607.47;;;9.50;75.32
79077;BME280;68477;42.698;23.342;2023-05-07T01:56:34;95603.56;;;9.54;75.25
79077;BME280;68477;42.698;23.342;2023-05-07T01:59:00;95601.06;;;9.45;75.22
79077;BME280;68477;42.698;23.342;2023-05-07T02:01:27;95605.28;;;9.38;74.68
79077;BME280;68477;42.698;23.342;2023-05-07T02:03:53;95608.38;;;9.33;75.07
79077;BME280;68477;42.698;23.342;2023-05-07T02:06:19;95601.81;;;9.37;74.18
79077;BME280;68477;42.698;23.342;2023-05-07T02:08:45;95602.72;;;9.20;74.27
79077;BME280;68477;42.698;23.342;2023-05-07T02:11:10;95591.81;;;9.32;74.00
79077;BME280;68477;42.698;23.342;2023-05-07T02:13:35;95584.97;;;9.48;73.24
79077;BME280;68477;42.698;23.342;2023-05-07T02:16:01;95583.38;;;9.55;73.69
79077;BME280;68477;42.698;23.342;2023-05-07T02:18:27;95588.31;;;9.58;73.49
79077;BME280;68477;42.698;23.342;2023-05-07T02:20:53;95595.13;;;9.43;73.42
79077;BME280;68477;42.698;23.342;2023-05-07T02:23:18;95590.53;;;9.45;74.40
79077;BME280;68477;42.698;23.342;2023-05-07T02:25:44;95589.78;;;9.52;73.86
79077;BME280;68477;42.698;23.342;2023-05-07T02:28:09;95592.25;;;9.62;73.58
79077;BME280;68477;42.698;23.342;2023-05-07T02:30:36;95590.03;;;9.41;73.58
79077;BME280;68477;42.698;23.342;2023-05-07T02:33:02;95588.19;;;9.33;74.44
79077;BME280;68477;42.698;23.342;2023-05-07T02:35:27;95593.94;;;9.29;75.15
79077;BME280;68477;42.698;23.342;2023-05-07T02:37:53;95587.25;;;9.43;74.45
79077;BME280;68477;42.698;23.342;2023-05-07T02:40:18;95589.84;;;9.34;74.59
79077;BME280;68477;42.698;23.342;2023-05-07T02:42:44;95580.28;;;9.25;75.16
79077;BME280;68477;42.698;23.342;2023-05-07T02:45:09;95583.72;;;9.26;76.34
79077;BME280;68477;42.698;23.342;2023-05-07T02:47:35;95583.94;;;9.32;75.54
79077;BME280;68477;42.698;23.342;2023-05-07T02:50:00;95585.78;;;9.48;75.68
79077;BME280;68477;42.698;23.342;2023-05-07T02:52:26;95585.88;;;9.65;75.89
79077;BME280;68477;42.698;23.342;2023-05-07T02:54:52;95591.66;;;9.76;75.46
79077;BME280;68477;42.698;23.342;2023-05-07T02:57:17;95590.53;;;9.79;76.01
79077;BME280;68477;42.698;23.342;2023-05-07T02:59:43;95594.19;;;9.86;75.47
79077;BME280;68477;42.698;23.342;2023-05-07T03:02:08;95598.56;;;9.77;76.17
79077;BME280;68477;42.698;23.342;2023-05-07T03:04:34;95593.19;;;9.95;76.47
79077;BME280;68477;42.698;23.342;2023-05-07T03:06:59;95602.88;;;9.86;75.66
79077;BME280;68477;42.698;23.342;2023-05-07T03:09:25;95596.94;;;9.84;76.05
79077;BME280;68477;42.698;23.342;2023-05-07T03:11:51;95604.34;;;9.89;76.18
79077;BME280;68477;42.698;23.342;2023-05-07T03:14:16;95610.13;;;10.01;76.20
79077;BME280;68477;42.698;23.342;2023-05-07T03:16:42;95610.16;;;10.09;75.85
79077;BME280;68477;42.698;23.342;2023-05-07T03:19:07;95612.13;;;10.15;75.57
79077;BME280;68477;42.698;23.342;2023-05-07T03:21:33;95617.72;;;10.12;76.07
79077;BME280;68477;42.698;23.342;2023-05-07T03:23:59;95613.75;;;10.00;76.46
79077;BME280;68477;42.698;23.342;2023-05-07T03:26:25;95615.88;;;10.04;76.00
79077;BME280;68477;42.698;23.342;2023-05-07T03:28:51;95613.22;;;9.88;77.47
79077;BME280;68477;42.698;23.342;2023-05-07T03:31:16;95614.03;;;9.88;77.29
79077;BME280;68477;42.698;23.342;2023-05-07T03:33:55;95615.03;;;9.96;76.82
79077;BME280;68477;42.698;23.342;2023-05-07T03:36:22;95622.78;;;9.97;76.92
79077;BME280;68477;42.698;23.342;2023-05-07T03:38:48;95623.13;;;10.02;77.02
79077;BME280;68477;42.698;23.342;2023-05-07T03:41:14;95627.34;;;9.95;77.12
79077;BME280;68477;42.698;23.342;2023-05-07T03:43:40;95633.00;;;10.08;76.97
79077;BME280;68477;42.698;23.342;2023-05-07T03:46:05;95629.38;;;10.09;76.70
79077;BME280;68477;42.698;23.342;2023-05-07T03:48:31;95625.94;;;10.09;77.38
79077;BME280;68477;42.698;23.342;2023-05-07T03:51:00;95626.56;;;10.03;77.11
79077;BME280;68477;42.698;23.342;2023-05-07T03:53:25;95632.97;;;10.00;77.20
79077;BME280;68477;42.698;23.342;2023-05-07T03:55:50;95635.44;;;10.02;77.52
79077;BME280;68477;42.698;23.342;2023-05-07T03:58:16;95639.25;;;10.15;76.82
79077;BME280;68477;42.698;23.342;2023-05-07T04:00:42;95642.75;;;10.24;76.13
79077;BME280;68477;42.698;23.342;2023-05-07T04:03:07;95642.66;;;10.08;76.38
79077;BME280;68477;42.698;23.342;2023-05-07T04:05:34;95645.59;;;9.97;76.11
79077;BME280;68477;42.698;23.342;2023-05-07T04:08:00;95647.09;;;9.99;75.21
79077;BME280;68477;42.698;23.342;2023-05-07T04:10:26;95656.78;;;10.07;74.10
79077;BME280;68477;42.698;23.342;2023-05-07T04:12:53;95660.09;;;10.17;73.91
79077;BME280;68477;42.698;23.342;2023-05-07T04:15:19;95661.91;;;10.16;73.98
79077;BME280;68477;42.698;23.342;2023-05-07T04:17:44;95662.88;;;10.07;73.00
79077;BME280;68477;42.698;23.342;2023-05-07T04:20:13;95674.59;;;10.21;72.61
79077;BME280;68477;42.698;23.342;2023-05-07T04:22:39;95673.22;;;10.01;73.67
79077;BME280;68477;42.698;23.342;2023-05-07T04:25:07;95674.41;;;10.14;72.95
79077;BME280;68477;42.698;23.342;2023-05-07T04:27:34;95676.94;;;10.24;72.72
79077;BME280;68477;42.698;23.342;2023-05-07T04:30:00;95679.56;;;10.24;72.79
79077;BME280;68477;42.698;23.342;2023-05-07T04:32:26;95686.50;;;10.33;72.24
79077;BME280;68477;42.698;23.342;2023-05-07T04:34:51;95687.44;;;10.24;72.79
79077;BME280;68477;42.698;23.342;2023-05-07T04:37:17;95684.69;;;10.34;73.00
79077;BME280;68477;42.698;23.342;2023-05-07T04:39:42;95690.97;;;10.49;71.84
79077;BME280;68477;42.698;23.342;2023-05-07T04:42:08;95691.00;;;10.57;71.17
79077;BME280;68477;42.698;23.342;2023-05-07T04:44:34;95695.06;;;10.52;70.95
79077;BME280;68477;42.698;23.342;2023-05-07T04:47:00;95697.19;;;10.40;72.41
79077;BME280;68477;42.698;23.342;2023-05-07T04:49:25;95695.56;;;10.47;71.27
79077;BME280;68477;42.698;23.342;2023-05-07T04:51:51;95693.13;;;10.62;70.47
79077;BME280;68477;42.698;23.342;2023-05-07T04:54:16;95692.97;;;10.71;70.34
79077;BME280;68477;42.698;23.342;2023-05-07T04:56:42;95697.44;;;10.79;70.28
79077;BME280;68477;42.698;23.342;2023-05-07T04:59:07;95694.81;;;10.95;69.66
79077;BME280;68477;42.698;23.342;2023-05-07T05:01:32;95694.50;;;11.06;69.44
79077;BME280;68477;42.698;23.342;2023-05-07T05:03:58;95686.44;;;11.16;69.12
79077;BME280;68477;42.698;23.342;2023-05-07T05:06:25;95685.44;;;11.25;68.33
79077;BME280;68477;42.698;23.342;2023-05-07T05:08:51;95693.19;;;11.19;68.66
79077;BME280;68477;42.698;23.342;2023-05-07T05:11:17;95685.44;;;11.33;68.53
79077;BME280;68477;42.698;23.342;2023-05-07T05:13:42;95687.09;;;11.34;68.64
79077;BME280;68477;42.698;23.342;2023-05-07T05:16:08;95685.25;;;11.43;70.08
79077;BME280;68477;42.698;23.342;2023-05-07T05:18:34;95690.03;;;11.48;67.82
79077;BME280;68477;42.698;23.342;2023-05-07T05:20:59;95684.94;;;11.46;68.63
79077;BME280;68477;42.698;23.342;2023-05-07T05:23:25;95684.06;;;11.78;67.69
79077;BME280;68477;42.698;23.342;2023-05-07T05:25:55;95678.94;;;11.85;68.85
79077;BME280;68477;42.698;23.342;2023-05-07T05:28:21;95688.63;;;12.01;67.88
79077;BME280;68477;42.698;23.342;2023-05-07T05:30:46;95684.00;;;12.03;67.03
79077;BME280;68477;42.698;23.342;2023-05-07T05:33:11;95693.66;;;12.18;67.18
79077;BME280;68477;42.698;23.342;2023-05-07T05:35:37;95696.13;;;12.20;68.13
79077;BME280;68477;42.698;23.342;2023-05-07T05:38:02;95692.59;;;12.36;67.63
79077;BME280;68477;42.698;23.342;2023-05-07T05:40:28;95686.78;;;12.48;67.63
79077;BME280;68477;42.698;23.342;2023-05-07T05:42:53;95685.09;;;12.78;66.65
79077;BME280;68477;42.698;23.342;2023-05-07T05:45:19;95685.09;;;12.78;65.68
79077;BME280;68477;42.698;23.342;2023-05-07T05:47:45;95694.78;;;12.86;64.83
79077;BME280;68477;42.698;23.342;2023-05-07T05:50:10;95685.34;;;12.92;65.12
79077;BME280;68477;42.698;23.342;2023-05-07T05:52:35;95688.81;;;13.15;64.18
79077;BME280;68477;42.698;23.342;2023-05-07T05:55:01;95688.50;;;13.10;65.00
79077;BME280;68477;42.698;23.342;2023-05-07T05:57:26;95687.88;;;13.31;64.36
79077;BME280;68477;42.698;23.342;2023-05-07T05:59:52;95683.19;;;13.56;63.96
79077;BME280;68477;42.698;23.342;2023-05-07T06:02:17;95690.03;;;13.65;63.91
79077;BME280;68477;42.698;23.342;2023-05-07T06:04:42;95694.78;;;13.69;64.41
79077;BME280;68477;42.698;23.342;2023-05-07T06:07:08;95698.16;;;13.63;63.93
79077;BME280;68477;42.698;23.342;2023-05-07T06:09:34;95696.16;;;13.80;63.94
79077;BME280;68477;42.698;23.342;2023-05-07T06:11:59;95686.44;;;13.95;63.54
79077;BME280;68477;42.698;23.342;2023-05-07T06:14:25;95684.22;;;14.14;63.28
79077;BME280;68477;42.698;23.342;2023-05-07T06:16:50;95687.41;;;14.24;63.88
79077;BME280;68477;42.698;23.342;2023-05-07T06:19:16;95688.97;;;14.18;62.13
79077;BME280;68477;42.698;23.342;2023-05-07T06:21:43;95685.38;;;14.55;62.85
79077;BME280;68477;42.698;23.342;2023-05-07T06:24:09;95687.13;;;14.63;61.46
79077;BME280;68477;42.698;23.342;2023-05-07T06:26:34;95689.09;;;14.76;60.21
79077;BME280;68477;42.698;23.342;2023-05-07T06:28:59;95681.78;;;14.99;60.07
79077;BME280;68477;42.698;23.342;2023-05-07T06:31:29;95680.88;;;14.92;59.03
79077;BME280;68477;42.698;23.342;2023-05-07T06:33:56;95678.19;;;14.85;61.09
79077;BME280;68477;42.698;23.342;2023-05-07T06:36:21;95675.09;;;15.25;59.25
79077;BME280;68477;42.698;23.342;2023-05-07T06:38:46;95674.34;;;15.31;58.86
79077;BME280;68477;42.698;23.342;2023-05-07T06:41:12;95663.53;;;15.32;59.11
79077;BME280;68477;42.698;23.342;2023-05-07T06:43:37;95669.97;;;15.44;58.83
79077;BME280;68477;42.698;23.342;2023-05-07T06:46:03;95665.28;;;15.47;59.31
79077;BME280;68477;42.698;23.342;2023-05-07T06:48:28;95664.06;;;15.70;57.73
79077;BME280;68477;42.698;23.342;2023-05-07T06:50:53;95650.06;;;15.83;59.31
79077;BME280;68477;42.698;23.342;2023-05-07T06:53:20;95658.63;;;15.85;58.84
79077;BME280;68477;42.698;23.342;2023-05-07T06:55:46;95659.16;;;16.02;56.22
79077;BME280;68477;42.698;23.342;2023-05-07T06:58:11;95645.53;;;16.12;55.52
79077;BME280;68477;42.698;23.342;2023-05-07T07:00:37;95655.06;;;15.99;56.12
79077;BME280;68477;42.698;23.342;2023-05-07T07:03:02;95645.25;;;16.00;56.09
79077;BME280;68477;42.698;23.342;2023-05-07T07:05:28;95655.81;;;16.28;57.57
79077;BME280;68477;42.698;23.342;2023-05-07T07:07:53;95653.28;;;16.61;54.64
79077;BME280;68477;42.698;23.342;2023-05-07T07:10:19;95656.75;;;16.62;57.15
79077;BME280;68477;42.698;23.342;2023-05-07T07:12:45;95653.44;;;17.14;54.01
79077;BME280;68477;42.698;23.342;2023-05-07T07:15:11;95648.31;;;17.32;53.64
79077;BME280;68477;42.698;23.342;2023-05-07T07:17:36;95657.13;;;17.33;54.42
79077;BME280;68477;42.698;23.342;2023-05-07T07:20:02;95648.94;;;17.14;53.56
79077;BME280;68477;42.698;23.342;2023-05-07T07:22:28;95648.50;;;17.44;54.44
79077;BME280;68477;42.698;23.342;2023-05-07T07:24:54;95646.09;;;17.36;55.11
79077;BME280;68477;42.698;23.342;2023-05-07T07:27:19;95637.88;;;17.64;52.44
79077;BME280;68477;42.698;23.342;2023-05-07T07:29:45;95640.94;;;17.61;53.25
79077;BME280;68477;42.698;23.342;2023-05-07T07:32:10;95639.47;;;17.98;50.94
79077;BME280;68477;42.698;23.342;2023-05-07T07:34:36;95642.72;;;18.13;51.17
79077;BME280;68477;42.698;23.342;2023-05-07T07:37:01;95647.50;;;17.85;49.86
79077;BME280;68477;42.698;23.342;2023-05-07T07:39:30;95648.34;;;17.72;50.86
79077;BME280;68477;42.698;23.342;2023-05-07T07:41:56;95649.22;;;18.30;51.26
79077;BME280;68477;42.698;23.342;2023-05-07T07:44:22;95651.59;;;18.45;49.20
79077;BME280;68477;42.698;23.342;2023-05-07T07:46:47;95647.38;;;18.31;49.00
79077;BME280;68477;42.698;23.342;2023-05-07T07:49:12;95654.44;;;18.57;48.61
79077;BME280;68477;42.698;23.342;2023-05-07T07:51:38;95655.31;;;18.44;49.38
79077;BME280;68477;42.698;23.342;2023-05-07T07:54:03;95663.72;;;18.48;50.07
79077;BME280;68477;42.698;23.342;2023-05-07T07:56:29;95658.81;;;18.89;50.01
79077;BME280;68477;42.698;23.342;2023-05-07T07:58:54;95652.97;;;19.06;48.23
79077;BME280;68477;42.698;23.342;2023-05-07T08:01:20;95653.31;;;19.16;47.31
79077;BME280;68477;42.698;23.342;2023-05-07T08:03:45;95652.97;;;19.06;47.88
79077;BME280;68477;42.698;23.342;2023-05-07T08:06:11;95649.25;;;19.38;47.29
79077;BME280;68477;42.698;23.342;2023-05-07T08:08:36;95648.63;;;19.36;49.22
79077;BME280;68477;42.698;23.342;2023-05-07T08:11:01;95647.91;;;19.54;48.15
79077;BME280;68477;42.698;23.342;2023-05-07T08:13:27;95641.03;;;19.15;48.45
79077;BME280;68477;42.698;23.342;2023-05-07T08:15:52;95650.31;;;19.37;45.78
79077;BME280;68477;42.698;23.342;2023-05-07T08:18:18;95643.94;;;19.63;46.00
79077;BME280;68477;42.698;23.342;2023-05-07T08:20:43;95644.78;;;19.64;44.38
79077;BME280;68477;42.698;23.342;2023-05-07T08:23:09;95646.75;;;19.93;45.67
79077;BME280;68477;42.698;23.342;2023-05-07T08:25:34;95633.25;;;20.25;43.71
79077;BME280;68477;42.698;23.342;2023-05-07T08:28:00;95632.53;;;20.18;43.51
79077;BME280;68477;42.698;23.342;2023-05-07T08:30:26;95638.47;;;20.20;44.09
79077;BME280;68477;42.698;23.342;2023-05-07T08:32:52;95628.72;;;20.25;41.41
79077;BME280;68477;42.698;23.342;2023-05-07T08:35:17;95629.56;;;20.44;43.59
79077;BME280;68477;42.698;23.342;2023-05-07T08:37:43;95627.31;;;20.59;41.90
79077;BME280;68477;42.698;23.342;2023-05-07T08:40:09;95621.47;;;20.32;42.18
79077;BME280;68477;42.698;23.342;2023-05-07T08:42:36;95628.88;;;20.30;41.90
79077;BME280;68477;42.698;23.342;2023-05-07T08:45:09;95622.13;;;20.46;42.23
79077;BME280;68477;42.698;23.342;2023-05-07T08:47:46;95617.28;;;20.73;43.44
79077;BME280;68477;42.698;23.342;2023-05-07T08:50:12;95624.69;;;21.01;41.52
79077;BME280;68477;42.698;23.342;2023-05-07T08:52:39;95613.56;;;21.16;43.48
79077;BME280;68477;42.698;23.342;2023-05-07T08:55:06;95612.72;;;21.57;41.37
79077;BME280;68477;42.698;23.342;2023-05-07T08:57:32;95605.75;;;21.44;39.17
79077;BME280;68477;42.698;23.342;2023-05-07T08:59:58;95614.59;;;21.57;40.90
79077;BME280;68477;42.698;23.342;2023-05-07T09:02:23;95611.81;;;21.87;39.40
79077;BME280;68477;42.698;23.342;2023-05-07T09:04:49;95611.00;;;22.10;37.93
79077;BME280;68477;42.698;23.342;2023-05-07T09:07:14;95604.59;;;22.11;36.08
79077;BME280;68477;42.698;23.342;2023-05-07T09:09:40;95607.38;;;21.69;36.48
79077;BME280;68477;42.698;23.342;2023-05-07T09:12:05;95593.75;;;21.82;36.03
79077;BME280;68477;42.698;23.342;2023-05-07T09:14:32;95598.59;;;22.44;37.81
79077;BME280;68477;42.698;23.342;2023-05-07T09:16:58;95591.81;;;22.41;36.87
79077;BME280;68477;42.698;23.342;2023-05-07T09:19:24;95587.56;;;21.93;36.71
79077;BME280;68477;42.698;23.342;2023-05-07T09:21:57;95591.88;;;22.58;36.55
79077;BME280;68477;42.698;23.342;2023-05-07T09:24:23;95589.03;;;22.36;38.02
79077;BME280;68477;42.698;23.342;2023-05-07T09:26:49;95593.59;;;22.64;35.22
79077;BME280;68477;42.698;23.342;2023-05-07T09:29:15;95590.66;;;22.77;35.73
79077;BME280;68477;42.698;23.342;2023-05-07T09:31:42;95582.69;;;23.11;33.69
79077;BME280;68477;42.698;23.342;2023-05-07T09:34:08;95581.75;;;22.88;34.33
79077;BME280;68477;42.698;23.342;2023-05-07T09:36:33;95583.75;;;23.43;32.62
79077;BME280;68477;42.698;23.342;2023-05-07T09:39:01;95583.19;;;23.24;32.72
79077;BME280;68477;42.698;23.342;2023-05-07T09:41:30;95570.31;;;23.27;33.21
79077;BME280;68477;42.698;23.342;2023-05-07T09:43:56;95570.66;;;23.47;31.08
79077;BME280;68477;42.698;23.342;2023-05-07T09:46:28;95578.47;;;23.65;31.05
79077;BME280;68477;42.698;23.342;2023-05-07T09:48:57;95560.41;;;23.61;31.50
79077;BME280;68477;42.698;23.342;2023-05-07T09:51:29;95563.84;;;23.95;30.84
79077;BME280;68477;42.698;23.342;2023-05-07T09:53:56;95559.94;;;24.02;30.36
79077;BME280;68477;42.698;23.342;2023-05-07T09:56:22;95559.59;;;23.99;32.16
79077;BME280;68477;42.698;23.342;2023-05-07T09:58:49;95561.88;;;24.29;30.20
79077;BME280;68477;42.698;23.342;2023-05-07T10:01:17;95559.50;;;23.72;30.32
79077;BME280;68477;42.698;23.342;2023-05-07T10:03:44;95555.81;;;23.78;30.33
79077;BME280;68477;42.698;23.342;2023-05-07T10:06:12;95553.97;;;24.22;29.27
79077;BME280;68477;42.698;23.342;2023-05-07T10:08:38;95555.16;;;24.09;30.19
79077;BME280;68477;42.698;23.342;2023-05-07T10:11:05;95550.09;;;23.91;28.83
79077;BME280;68477;42.698;23.342;2023-05-07T10:13:32;95542.88;;;24.84;30.35
79077;BME280;68477;42.698;23.342;2023-05-07T10:16:00;95542.72;;;24.96;28.54
79077;BME280;68477;42.698;23.342;2023-05-07T10:18:26;95544.75;;;25.43;29.98
79077;BME280;68477;42.698;23.342;2023-05-07T10:20:59;95540.06;;;25.28;27.46
79077;BME280;68477;42.698;23.342;2023-05-07T10:23:27;95533.00;;;24.95;26.87
79077;BME280;68477;42.698;23.342;2023-05-07T10:25:53;95533.41;;;25.73;26.75
79077;BME280;68477;42.698;23.342;2023-05-07T10:28:20;95536.66;;;25.43;26.62
79077;BME280;68477;42.698;23.342;2023-05-07T10:31:49;95532.06;;;25.75;26.38
79077;BME280;68477;42.698;23.342;2023-05-07T10:33:42;95527.66;;;25.64;25.91
79077;BME280;68477;42.698;23.342;2023-05-07T10:36:10;95523.19;;;25.38;28.36
79077;BME280;68477;42.698;23.342;2023-05-07T10:38:36;95517.63;;;25.17;25.80
79077;BME280;68477;42.698;23.342;2023-05-07T10:41:02;95512.09;;;25.34;25.43
79077;BME280;68477;42.698;23.342;2023-05-07T10:43:41;95519.22;;;25.50;26.72
79077;BME280;68477;42.698;23.342;2023-05-07T10:46:17;95507.91;;;25.48;28.25
79077;BME280;68477;42.698;23.342;2023-05-07T10:51:29;95509.44;;;25.39;27.63
79077;BME280;68477;42.698;23.342;2023-05-07T10:56:37;95499.25;;;25.83;25.61
79077;BME280;68477;42.698;23.342;2023-05-07T10:59:30;95501.56;;;26.27;26.01
79077;BME280;68477;42.698;23.342;2023-05-07T11:02:03;95503.34;;;26.74;26.49
79077;BME280;68477;42.698;23.342;2023-05-07T11:04:33;95505.47;;;26.67;26.05
79077;BME280;68477;42.698;23.342;2023-05-07T11:15:09;95504.16;;;26.02;25.33
79077;BME280;68477;42.698;23.342;2023-05-07T11:17:52;95498.09;;;26.37;26.05
79077;BME280;68477;42.698;23.342;2023-05-07T11:20:18;95504.13;;;26.64;24.79
79077;BME280;68477;42.698;23.342;2023-05-07T11:22:43;95497.41;;;26.87;25.01
79077;BME280;68477;42.698;23.342;2023-05-07T11:25:09;95490.06;;;26.52;24.15
79077;BME280;68477;42.698;23.342;2023-05-07T11:27:34;95490.34;;;26.56;24.77
79077;BME280;68477;42.698;23.342;2023-05-07T11:30:00;95490.06;;;26.42;24.45
79077;BME280;68477;42.698;23.342;2023-05-07T11:32:31;95485.00;;;27.07;24.95
79077;BME280;68477;42.698;23.342;2023-05-07T11:34:59;95479.91;;;27.10;24.56
79077;BME280;68477;42.698;23.342;2023-05-07T11:37:26;95479.94;;;26.12;24.25
79077;BME280;68477;42.698;23.342;2023-05-07T11:40:11;95483.09;;;26.77;22.66
79077;BME280;68477;42.698;23.342;2023-05-07T11:42:38;95482.31;;;27.12;24.42
79077;BME280;68477;42.698;23.342;2023-05-07T11:45:06;95476.66;;;27.03;22.72
79077;BME280;68477;42.698;23.342;2023-05-07T11:47:32;95478.53;;;27.13;22.86
79077;BME280;68477;42.698;23.342;2023-05-07T11:50:03;95481.34;;;26.35;22.54
79077;BME280;68477;42.698;23.342;2023-05-07T11:52:29;95480.13;;;26.73;24.54
79077;BME280;68477;42.698;23.342;2023-05-07T11:54:56;95475.03;;;27.02;23.64
79077;BME280;68477;42.698;23.342;2023-05-07T11:57:24;95487.44;;;27.28;23.63
79077;BME280;68477;42.698;23.342;2023-05-07T11:59:56;95479.56;;;26.71;22.47
79077;BME280;68477;42.698;23.342;2023-05-07T12:02:23;95471.78;;;27.25;21.74
79077;BME280;68477;42.698;23.342;2023-05-07T12:04:50;95469.06;;;27.66;21.46
79077;BME280;68477;42.698;23.342;2023-05-07T12:07:16;95469.03;;;27.56;20.85
79077;BME280;68477;42.698;23.342;2023-05-07T12:09:42;95463.91;;;27.65;22.13
79077;BME280;68477;42.698;23.342;2023-05-07T12:12:08;95459.19;;;27.96;20.07
79077;BME280;68477;42.698;23.342;2023-05-07T12:14:40;95453.13;;;28.34;21.55
79077;BME280;68477;42.698;23.342;2023-05-07T12:17:07;95457.19;;;27.37;20.70
79077;BME280;68477;42.698;23.342;2023-05-07T12:19:34;95451.47;;;27.64;22.33
79077;BME280;68477;42.698;23.342;2023-05-07T12:22:02;95447.91;;;27.78;21.29
79077;BME280;68477;42.698;23.342;2023-05-07T12:24:27;95448.88;;;28.08;20.83
79077;BME280;68477;42.698;23.342;2023-05-07T12:26:53;95444.13;;;27.74;19.69
79077;BME280;68477;42.698;23.342;2023-05-07T12:29:21;95433.94;;;27.41;19.87
79077;BME280;68477;42.698;23.342;2023-05-07T12:31:49;95437.31;;;27.92;23.09
79077;BME280;68477;42.698;23.342;2023-05-07T12:34:15;95438.91;;;28.03;20.15
79077;BME280;68477;42.698;23.342;2023-05-07T12:36:40;95427.16;;;28.28;19.85
79077;BME280;68477;42.698;23.342;2023-05-07T12:39:07;95427.41;;;28.27;20.38
79077;BME280;68477;42.698;23.342;2023-05-07T12:41:55;95420.22;;;27.12;20.27
79077;BME280;68477;42.698;23.342;2023-05-07T12:44:22;95425.34;;;27.13;21.07
79077;BME280;68477;42.698;23.342;2023-05-07T12:46:49;95420.91;;;27.63;23.96
79077;BME280;68477;42.698;23.342;2023-05-07T12:49:15;95420.16;;;28.17;20.74
79077;BME280;68477;42.698;23.342;2023-05-07T12:51:40;95415.13;;;28.50;19.70
79077;BME280;68477;42.698;23.342;2023-05-07T12:54:06;95411.28;;;28.11;20.35
79077;BME280;68477;42.698;23.342;2023-05-07T12:56:31;95407.66;;;27.77;21.92
79077;BME280;68477;42.698;23.342;2023-05-07T12:58:57;95404.84;;;27.97;21.69
79077;BME280;68477;42.698;23.342;2023-05-07T13:01:30;95402.31;;;28.21;19.56
79077;BME280;68477;42.698;23.342;2023-05-07T13:04:03;95402.09;;;28.07;20.77